sensor_id;sensor_type;location;lat;lon;timestamp;temperature;humidity
67893;DHT22;54688;52.376;16.744;2023-08-01T00:02:15;17.9;67.1
67893;DHT22;54688;52.376;16.744;2023-08-01T00:05:17;17.9;67.3
67893;DHT22;54688;52.376;16.744;2023-08-01T00:08:19;17.9;67.6
67893;DHT22;54688;52.376;16.744;2023-08-01T00:11:22;17.9;67.8
67893;DHT22;54688;52.376;16.744;2023-08-01T00:14:24;17.9;67.7
67893;DHT22;54688;52.376;16.744;2023-08-01T00:17:27;18;67.6
67893;DHT22;54688;52.376;16.744;2023-08-01T00:20:29;18;66.7
67893;DHT22;54688;52.376;16.744;2023-08-01T00:23:32;17.9;67.8
67893;DHT22;54688;52.376;16.744;2023-08-01T00:26:33;17.9;68.1
67893;DHT22;54688;52.376;16.744;2023-08-01T00:29:36;17.9;67.4
67893;DHT22;54688;52.376;16.744;2023-08-01T00:32:38;17.9;67.6
67893;DHT22;54688;52.376;16.744;2023-08-01T00:35:40;17.9;67.4
67893;DHT22;54688;52.376;16.744;2023-08-01T00:38:42;17.9;67.7
67893;DHT22;54688;52.376;16.744;2023-08-01T00:41:45;17.9;67.7
67893;DHT22;54688;52.376;16.744;2023-08-01T00:44:47;17.8;67.4
67893;DHT22;54688;52.376;16.744;2023-08-01T00:47:50;17.8;67.5
67893;DHT22;54688;52.376;16.744;2023-08-01T00:50:52;17.8;67.4
67893;DHT22;54688;52.376;16.744;2023-08-01T00:53:55;17.8;66.7
67893;DHT22;54688;52.376;16.744;2023-08-01T00:56:57;17.8;66.8
67893;DHT22;54688;52.376;16.744;2023-08-01T01:00:00;17.8;66.8
67893;DHT22;54688;52.376;16.744;2023-08-01T01:03:03;17.8;66.9
67893;DHT22;54688;52.376;16.744;2023-08-01T01:06:06;17.8;66.9
67893;DHT22;54688;52.376;16.744;2023-08-01T01:09:14;17.8;67.4
67893;DHT22;54688;52.376;16.744;2023-08-01T01:12:17;17.8;66.6
67893;DHT22;54688;52.376;16.744;2023-08-01T01:15:19;17.8;66.7
67893;DHT22;54688;52.376;16.744;2023-08-01T01:18:22;17.8;66.6
67893;DHT22;54688;52.376;16.744;2023-08-01T01:21:24;17.7;66.2
67893;DHT22;54688;52.376;16.744;2023-08-01T01:24:27;17.7;66.2
67893;DHT22;54688;52.376;16.744;2023-08-01T01:27:29;17.8;66.8
67893;DHT22;54688;52.376;16.744;2023-08-01T01:30:32;17.7;66.8
67893;DHT22;54688;52.376;16.744;2023-08-01T01:33:35;17.8;66.4
67893;DHT22;54688;52.376;16.744;2023-08-01T01:36:37;17.7;66.6
67893;DHT22;54688;52.376;16.744;2023-08-01T01:39:39;17.7;66.8
67893;DHT22;54688;52.376;16.744;2023-08-01T01:42:42;17.7;67.1
67893;DHT22;54688;52.376;16.744;2023-08-01T01:45:43;17.6;66.9
67893;DHT22;54688;52.376;16.744;2023-08-01T01:48:46;17.6;66.6
67893;DHT22;54688;52.376;16.744;2023-08-01T01:51:47;17.6;66.8
67893;DHT22;54688;52.376;16.744;2023-08-01T01:54:50;17.6;67.1
67893;DHT22;54688;52.376;16.744;2023-08-01T01:57:51;17.6;67
67893;DHT22;54688;52.376;16.744;2023-08-01T02:00:54;17.6;67.5
67893;DHT22;54688;52.376;16.744;2023-08-01T02:03:56;17.5;67.2
67893;DHT22;54688;52.376;16.744;2023-08-01T02:06:58;17.5;67.6
67893;DHT22;54688;52.376;16.744;2023-08-01T02:10:01;17.5;67.8
67893;DHT22;54688;52.376;16.744;2023-08-01T02:13:04;17.5;68.8
67893;DHT22;54688;52.376;16.744;2023-08-01T02:16:05;17.4;69.3
67893;DHT22;54688;52.376;16.744;2023-08-01T02:19:07;17.4;70
67893;DHT22;54688;52.376;16.744;2023-08-01T02:22:09;17.4;69.8
67893;DHT22;54688;52.376;16.744;2023-08-01T02:25:11;17.4;69.8
67893;DHT22;54688;52.376;16.744;2023-08-01T02:28:14;17.4;70
67893;DHT22;54688;52.376;16.744;2023-08-01T02:31:15;17.3;69.7
67893;DHT22;54688;52.376;16.744;2023-08-01T02:34:17;17.3;70.4
67893;DHT22;54688;52.376;16.744;2023-08-01T02:37:20;17.3;70.7
67893;DHT22;54688;52.376;16.744;2023-08-01T02:40:22;17.3;70.1
67893;DHT22;54688;52.376;16.744;2023-08-01T02:43:25;17.2;70.4
67893;DHT22;54688;52.376;16.744;2023-08-01T02:46:27;17.2;70.6
67893;DHT22;54688;52.376;16.744;2023-08-01T02:49:29;17.2;70.4
67893;DHT22;54688;52.376;16.744;2023-08-01T02:52:31;17.2;70.6
67893;DHT22;54688;52.376;16.744;2023-08-01T02:55:33;17.2;70.9
67893;DHT22;54688;52.376;16.744;2023-08-01T02:58:35;17.1;70.7
67893;DHT22;54688;52.376;16.744;2023-08-01T03:01:37;17.1;70.8
67893;DHT22;54688;52.376;16.744;2023-08-01T03:04:41;17.1;70.9
67893;DHT22;54688;52.376;16.744;2023-08-01T03:10:43;17.1;71.4
67893;DHT22;54688;52.376;16.744;2023-08-01T03:13:45;17.1;72.1
67893;DHT22;54688;52.376;16.744;2023-08-01T03:16:47;17;72.4
67893;DHT22;54688;52.376;16.744;2023-08-01T03:19:49;17;73
67893;DHT22;54688;52.376;16.744;2023-08-01T03:22:50;17;73.8
67893;DHT22;54688;52.376;16.744;2023-08-01T03:25:52;16.9;74.1
67893;DHT22;54688;52.376;16.744;2023-08-01T03:28:54;16.9;74.2
67893;DHT22;54688;52.376;16.744;2023-08-01T03:31:57;16.8;73.7
67893;DHT22;54688;52.376;16.744;2023-08-01T03:34:59;16.8;74.3
67893;DHT22;54688;52.376;16.744;2023-08-01T03:38:02;16.7;74.7
67893;DHT22;54688;52.376;16.744;2023-08-01T03:41:04;16.7;75.4
67893;DHT22;54688;52.376;16.744;2023-08-01T03:44:07;16.6;75.8
67893;DHT22;54688;52.376;16.744;2023-08-01T03:47:09;16.6;76
67893;DHT22;54688;52.376;16.744;2023-08-01T03:50:12;16.5;76.7
67893;DHT22;54688;52.376;16.744;2023-08-01T03:53:14;16.5;77.3
67893;DHT22;54688;52.376;16.744;2023-08-01T03:56:16;16.5;78.4
67893;DHT22;54688;52.376;16.744;2023-08-01T03:59:18;16.3;78.8
67893;DHT22;54688;52.376;16.744;2023-08-01T04:02:20;16.3;79.6
67893;DHT22;54688;52.376;16.744;2023-08-01T04:05:22;16.2;80.1
67893;DHT22;54688;52.376;16.744;2023-08-01T04:08:24;16.2;80.4
67893;DHT22;54688;52.376;16.744;2023-08-01T04:11:27;16.1;80.8
67893;DHT22;54688;52.376;16.744;2023-08-01T04:14:29;16;81
67893;DHT22;54688;52.376;16.744;2023-08-01T04:17:31;16;81.4
67893;DHT22;54688;52.376;16.744;2023-08-01T04:20:33;16;81.7
67893;DHT22;54688;52.376;16.744;2023-08-01T04:23:35;15.9;82.1
67893;DHT22;54688;52.376;16.744;2023-08-01T04:26:36;15.9;82.5
67893;DHT22;54688;52.376;16.744;2023-08-01T04:29:38;15.9;82.9
67893;DHT22;54688;52.376;16.744;2023-08-01T04:32:40;15.9;83.1
67893;DHT22;54688;52.376;16.744;2023-08-01T04:35:42;15.9;83.5
67893;DHT22;54688;52.376;16.744;2023-08-01T04:38:44;15.9;83.8
67893;DHT22;54688;52.376;16.744;2023-08-01T04:41:46;15.9;83.8
67893;DHT22;54688;52.376;16.744;2023-08-01T04:44:48;15.9;83.7
67893;DHT22;54688;52.376;16.744;2023-08-01T04:47:50;15.9;83.9
67893;DHT22;54688;52.376;16.744;2023-08-01T04:50:53;16;84.2
67893;DHT22;54688;52.376;16.744;2023-08-01T04:53:55;16;84.3
67893;DHT22;54688;52.376;16.744;2023-08-01T04:56:58;16;84.5
67893;DHT22;54688;52.376;16.744;2023-08-01T04:59:59;16.1;84.6
67893;DHT22;54688;52.376;16.744;2023-08-01T05:03:02;16.1;84.8
67893;DHT22;54688;52.376;16.744;2023-08-01T05:06:05;16.1;84.9
67893;DHT22;54688;52.376;16.744;2023-08-01T05:09:07;16.1;85.1
67893;DHT22;54688;52.376;16.744;2023-08-01T05:12:09;16.2;85.1
67893;DHT22;54688;52.376;16.744;2023-08-01T05:15:11;16.2;84.9
67893;DHT22;54688;52.376;16.744;2023-08-01T05:18:15;16.3;85
67893;DHT22;54688;52.376;16.744;2023-08-01T05:21:18;16.3;85
67893;DHT22;54688;52.376;16.744;2023-08-01T05:24:20;16.3;84.9
67893;DHT22;54688;52.376;16.744;2023-08-01T05:27:23;16.4;84.9
67893;DHT22;54688;52.376;16.744;2023-08-01T05:30:25;16.4;84.6
67893;DHT22;54688;52.376;16.744;2023-08-01T05:33:27;16.4;84.3
67893;DHT22;54688;52.376;16.744;2023-08-01T05:36:29;16.4;84.1
67893;DHT22;54688;52.376;16.744;2023-08-01T05:39:31;16.4;83.7
67893;DHT22;54688;52.376;16.744;2023-08-01T05:42:32;16.4;83.6
67893;DHT22;54688;52.376;16.744;2023-08-01T05:45:34;16.5;83.7
67893;DHT22;54688;52.376;16.744;2023-08-01T05:48:36;16.5;83.7
67893;DHT22;54688;52.376;16.744;2023-08-01T05:51:38;16.5;83.7
67893;DHT22;54688;52.376;16.744;2023-08-01T05:54:40;16.6;83.6
67893;DHT22;54688;52.376;16.744;2023-08-01T05:57:41;16.6;83.8
67893;DHT22;54688;52.376;16.744;2023-08-01T06:00:43;16.6;83.5
67893;DHT22;54688;52.376;16.744;2023-08-01T06:03:45;16.7;83.5
67893;DHT22;54688;52.376;16.744;2023-08-01T06:06:47;16.7;83.5
67893;DHT22;54688;52.376;16.744;2023-08-01T06:09:49;16.7;83.2
67893;DHT22;54688;52.376;16.744;2023-08-01T06:12:52;16.8;82.9
67893;DHT22;54688;52.376;16.744;2023-08-01T06:15:54;16.8;82.6
67893;DHT22;54688;52.376;16.744;2023-08-01T06:18:56;16.7;82.7
67893;DHT22;54688;52.376;16.744;2023-08-01T06:21:58;16.7;82.6
67893;DHT22;54688;52.376;16.744;2023-08-01T06:25:00;16.8;82.2
67893;DHT22;54688;52.376;16.744;2023-08-01T06:28:02;16.8;82.9
67893;DHT22;54688;52.376;16.744;2023-08-01T06:31:05;16.8;82.8
67893;DHT22;54688;52.376;16.744;2023-08-01T06:34:07;16.9;83.1
67893;DHT22;54688;52.376;16.744;2023-08-01T06:37:10;16.9;82.7
67893;DHT22;54688;52.376;16.744;2023-08-01T06:40:12;16.9;82.7
67893;DHT22;54688;52.376;16.744;2023-08-01T06:43:14;16.9;82.5
67893;DHT22;54688;52.376;16.744;2023-08-01T06:46:16;17;82.9
67893;DHT22;54688;52.376;16.744;2023-08-01T06:49:19;17.1;82.9
67893;DHT22;54688;52.376;16.744;2023-08-01T06:52:21;17.2;83.5
67893;DHT22;54688;52.376;16.744;2023-08-01T06:55:23;17.3;82.6
67893;DHT22;54688;52.376;16.744;2023-08-01T06:58:24;17.4;82
67893;DHT22;54688;52.376;16.744;2023-08-01T07:01:26;17.6;81.9
67893;DHT22;54688;52.376;16.744;2023-08-01T07:04:28;17.7;82
67893;DHT22;54688;52.376;16.744;2023-08-01T07:07:31;17.9;81.6
67893;DHT22;54688;52.376;16.744;2023-08-01T07:10:34;18.1;80.7
67893;DHT22;54688;52.376;16.744;2023-08-01T07:13:36;18.2;78.6
67893;DHT22;54688;52.376;16.744;2023-08-01T07:16:39;18.2;76.7
67893;DHT22;54688;52.376;16.744;2023-08-01T07:19:41;18.3;77.1
67893;DHT22;54688;52.376;16.744;2023-08-01T07:22:43;18.3;77.4
67893;DHT22;54688;52.376;16.744;2023-08-01T07:25:44;18.4;77.8
67893;DHT22;54688;52.376;16.744;2023-08-01T07:28:46;18.5;77.1
67893;DHT22;54688;52.376;16.744;2023-08-01T07:31:49;18.5;75.5
67893;DHT22;54688;52.376;16.744;2023-08-01T07:34:51;18.6;76.7
67893;DHT22;54688;52.376;16.744;2023-08-01T07:37:53;18.6;75.9
67893;DHT22;54688;52.376;16.744;2023-08-01T07:40:55;18.5;76.2
67893;DHT22;54688;52.376;16.744;2023-08-01T07:43:57;18.6;76.4
67893;DHT22;54688;52.376;16.744;2023-08-01T07:46:59;18.5;76.5
67893;DHT22;54688;52.376;16.744;2023-08-01T07:50:01;18.6;76.7
67893;DHT22;54688;52.376;16.744;2023-08-01T07:53:03;18.6;76.4
67893;DHT22;54688;52.376;16.744;2023-08-01T07:56:05;18.6;75.7
67893;DHT22;54688;52.376;16.744;2023-08-01T07:59:07;18.5;75.4
67893;DHT22;54688;52.376;16.744;2023-08-01T08:02:10;18.5;75.6
67893;DHT22;54688;52.376;16.744;2023-08-01T08:05:12;18.5;75.7
67893;DHT22;54688;52.376;16.744;2023-08-01T08:08:14;18.5;75.6
67893;DHT22;54688;52.376;16.744;2023-08-01T08:11:16;18.4;76.2
67893;DHT22;54688;52.376;16.744;2023-08-01T08:14:19;18.4;76.4
67893;DHT22;54688;52.376;16.744;2023-08-01T08:17:20;18.4;77
67893;DHT22;54688;52.376;16.744;2023-08-01T08:20:23;18.3;76.6
67893;DHT22;54688;52.376;16.744;2023-08-01T08:23:25;18.3;76.8
67893;DHT22;54688;52.376;16.744;2023-08-01T08:26:28;18.3;76.7
67893;DHT22;54688;52.376;16.744;2023-08-01T08:29:30;18.3;77.6
67893;DHT22;54688;52.376;16.744;2023-08-01T08:32:34;18.3;77.2
67893;DHT22;54688;52.376;16.744;2023-08-01T08:35:36;18.3;77.2
67893;DHT22;54688;52.376;16.744;2023-08-01T08:38:39;18.4;77.5
67893;DHT22;54688;52.376;16.744;2023-08-01T08:41:43;18.3;77.7
67893;DHT22;54688;52.376;16.744;2023-08-01T08:44:48;18.4;76.9
67893;DHT22;54688;52.376;16.744;2023-08-01T08:47:56;18.3;76.6
67893;DHT22;54688;52.376;16.744;2023-08-01T08:51:02;18.3;76.7
67893;DHT22;54688;52.376;16.744;2023-08-01T08:54:05;18.3;76.6
67893;DHT22;54688;52.376;16.744;2023-08-01T08:57:08;18.2;77.5
67893;DHT22;54688;52.376;16.744;2023-08-01T09:00:10;18.2;78.1
67893;DHT22;54688;52.376;16.744;2023-08-01T09:03:13;18.2;78.7
67893;DHT22;54688;52.376;16.744;2023-08-01T09:06:16;18.3;78.9
67893;DHT22;54688;52.376;16.744;2023-08-01T09:09:19;18.2;78.3
67893;DHT22;54688;52.376;16.744;2023-08-01T09:12:22;18.3;78.6
67893;DHT22;54688;52.376;16.744;2023-08-01T09:15:25;18.3;78.5
67893;DHT22;54688;52.376;16.744;2023-08-01T09:18:29;18.4;78.9
67893;DHT22;54688;52.376;16.744;2023-08-01T09:21:31;18.4;77.9
67893;DHT22;54688;52.376;16.744;2023-08-01T09:24:34;18.2;78.6
67893;DHT22;54688;52.376;16.744;2023-08-01T12:16:47;17.8;92.3
67893;DHT22;54688;52.376;16.744;2023-08-01T12:19:49;17.7;92.7
67893;DHT22;54688;52.376;16.744;2023-08-01T12:22:52;17.9;91.7
67893;DHT22;54688;52.376;16.744;2023-08-01T12:25:54;18.1;90.8
67893;DHT22;54688;52.376;16.744;2023-08-01T12:28:56;18.2;90.7
67893;DHT22;54688;52.376;16.744;2023-08-01T12:31:59;18.4;89.4
67893;DHT22;54688;52.376;16.744;2023-08-01T12:35:01;18.5;88.8
67893;DHT22;54688;52.376;16.744;2023-08-01T12:41:05;18.7;87.6
67893;DHT22;54688;52.376;16.744;2023-08-01T12:44:08;18.8;87.3
67893;DHT22;54688;52.376;16.744;2023-08-01T12:47:10;18.8;86.6
67893;DHT22;54688;52.376;16.744;2023-08-01T12:50:13;19;85.8
67893;DHT22;54688;52.376;16.744;2023-08-01T12:53:15;19.2;84.5
67893;DHT22;54688;52.376;16.744;2023-08-01T12:56:18;19.4;82.7
67893;DHT22;54688;52.376;16.744;2023-08-01T12:59:20;19.6;80.6
67893;DHT22;54688;52.376;16.744;2023-08-01T13:02:22;19.8;79.3
67893;DHT22;54688;52.376;16.744;2023-08-01T13:05:24;19.9;78.6
67893;DHT22;54688;52.376;16.744;2023-08-01T13:08:26;20.1;76.1
67893;DHT22;54688;52.376;16.744;2023-08-01T13:11:29;20.1;76.9
67893;DHT22;54688;52.376;16.744;2023-08-01T13:14:32;20.2;75.8
67893;DHT22;54688;52.376;16.744;2023-08-01T13:17:34;20.3;74.3
67893;DHT22;54688;52.376;16.744;2023-08-01T13:20:37;20.3;74.1
67893;DHT22;54688;52.376;16.744;2023-08-01T13:23:39;20.3;73.5
67893;DHT22;54688;52.376;16.744;2023-08-01T13:26:41;20.4;74.9
67893;DHT22;54688;52.376;16.744;2023-08-01T13:29:43;20.6;74.5
67893;DHT22;54688;52.376;16.744;2023-08-01T13:32:46;20.8;72.8
67893;DHT22;54688;52.376;16.744;2023-08-01T13:35:51;21;71.6
67893;DHT22;54688;52.376;16.744;2023-08-01T13:38:53;21.2;69.8
67893;DHT22;54688;52.376;16.744;2023-08-01T13:41:56;21.4;70.1
67893;DHT22;54688;52.376;16.744;2023-08-01T13:44:58;21.4;69.3
67893;DHT22;54688;52.376;16.744;2023-08-01T13:48:01;21.4;67.6
67893;DHT22;54688;52.376;16.744;2023-08-01T13:51:04;21.3;67.9
67893;DHT22;54688;52.376;16.744;2023-08-01T13:54:07;21.3;67.6
67893;DHT22;54688;52.376;16.744;2023-08-01T13:57:09;21.1;68.2
67893;DHT22;54688;52.376;16.744;2023-08-01T14:00:12;21;68.6
67893;DHT22;54688;52.376;16.744;2023-08-01T14:03:15;20.9;70
67893;DHT22;54688;52.376;16.744;2023-08-01T14:06:18;20.8;70.5
67893;DHT22;54688;52.376;16.744;2023-08-01T14:09:20;20.7;69.7
67893;DHT22;54688;52.376;16.744;2023-08-01T14:12:22;20.5;70.3
67893;DHT22;54688;52.376;16.744;2023-08-01T14:15:25;20.3;69.9
67893;DHT22;54688;52.376;16.744;2023-08-01T14:18:27;20.2;72.1
67893;DHT22;54688;52.376;16.744;2023-08-01T14:21:29;20;75.1
67893;DHT22;54688;52.376;16.744;2023-08-01T14:24:31;19.7;76.7
67893;DHT22;54688;52.376;16.744;2023-08-01T14:27:34;19.5;78.6
67893;DHT22;54688;52.376;16.744;2023-08-01T14:36:35;19.4;79
67893;DHT22;54688;52.376;16.744;2023-08-01T14:39:38;19.5;78.7
67893;DHT22;54688;52.376;16.744;2023-08-01T14:42:41;19.5;79.9
67893;DHT22;54688;52.376;16.744;2023-08-01T14:45:44;19.6;81.6
67893;DHT22;54688;52.376;16.744;2023-08-01T14:48:47;20;83.1
67893;DHT22;54688;52.376;16.744;2023-08-01T14:51:49;20.6;79.8
67893;DHT22;54688;52.376;16.744;2023-08-01T14:54:52;21;73.5
67893;DHT22;54688;52.376;16.744;2023-08-01T14:57:54;21.2;69
67893;DHT22;54688;52.376;16.744;2023-08-01T15:00:56;21.3;70.8
67893;DHT22;54688;52.376;16.744;2023-08-01T15:03:59;21.7;71.7
67893;DHT22;54688;52.376;16.744;2023-08-01T15:07:01;21.9;67.8
67893;DHT22;54688;52.376;16.744;2023-08-01T15:10:03;22;66.3
67893;DHT22;54688;52.376;16.744;2023-08-01T15:13:06;21.9;65.7
67893;DHT22;54688;52.376;16.744;2023-08-01T15:16:08;21.8;66.1
67893;DHT22;54688;52.376;16.744;2023-08-01T15:19:11;21.7;65.4
67893;DHT22;54688;52.376;16.744;2023-08-01T15:22:13;21.7;67.4
67893;DHT22;54688;52.376;16.744;2023-08-01T15:25:16;21.8;69
67893;DHT22;54688;52.376;16.744;2023-08-01T15:28:18;22.1;68.8
67893;DHT22;54688;52.376;16.744;2023-08-01T15:31:20;22.3;67
67893;DHT22;54688;52.376;16.744;2023-08-01T15:34:23;22.4;64.9
67893;DHT22;54688;52.376;16.744;2023-08-01T15:37:26;22.4;64.5
67893;DHT22;54688;52.376;16.744;2023-08-01T15:40:28;22.4;65.6
67893;DHT22;54688;52.376;16.744;2023-08-01T15:43:31;22.4;64.8
67893;DHT22;54688;52.376;16.744;2023-08-01T15:46:35;22.4;65.3
67893;DHT22;54688;52.376;16.744;2023-08-01T15:49:37;22.4;66.1
67893;DHT22;54688;52.376;16.744;2023-08-01T15:52:40;22.2;65.7
67893;DHT22;54688;52.376;16.744;2023-08-01T15:55:43;22;65.7
67893;DHT22;54688;52.376;16.744;2023-08-01T15:58:45;21.9;66.7
67893;DHT22;54688;52.376;16.744;2023-08-01T16:01:47;21.7;66
67893;DHT22;54688;52.376;16.744;2023-08-01T16:04:50;21.4;67.8
67893;DHT22;54688;52.376;16.744;2023-08-01T16:07:52;21.2;67.4
67893;DHT22;54688;52.376;16.744;2023-08-01T16:10:55;21;67.4
67893;DHT22;54688;52.376;16.744;2023-08-01T16:13:57;20.8;67.8
67893;DHT22;54688;52.376;16.744;2023-08-01T16:17:00;20.7;67.4
67893;DHT22;54688;52.376;16.744;2023-08-01T16:20:02;20.5;69.2
67893;DHT22;54688;52.376;16.744;2023-08-01T16:23:05;20.5;69.7
67893;DHT22;54688;52.376;16.744;2023-08-01T16:26:09;20.3;69.9
67893;DHT22;54688;52.376;16.744;2023-08-01T16:29:11;20.2;70.6
67893;DHT22;54688;52.376;16.744;2023-08-01T16:32:13;20.1;70.6
67893;DHT22;54688;52.376;16.744;2023-08-01T16:35:15;20.1;69.4
67893;DHT22;54688;52.376;16.744;2023-08-01T16:38:18;20;68.7
67893;DHT22;54688;52.376;16.744;2023-08-01T16:41:21;19.9;69.6
67893;DHT22;54688;52.376;16.744;2023-08-01T16:44:23;19.8;69.3
67893;DHT22;54688;52.376;16.744;2023-08-01T16:47:25;19.7;68.8
67893;DHT22;54688;52.376;16.744;2023-08-01T16:50:28;19.7;70
67893;DHT22;54688;52.376;16.744;2023-08-01T16:53:30;19.6;70
67893;DHT22;54688;52.376;16.744;2023-08-01T16:56:33;19.5;70.9
67893;DHT22;54688;52.376;16.744;2023-08-01T16:59:35;19.5;70.5
67893;DHT22;54688;52.376;16.744;2023-08-01T17:02:38;19.4;70.9
67893;DHT22;54688;52.376;16.744;2023-08-01T17:05:41;19.4;71.3
67893;DHT22;54688;52.376;16.744;2023-08-01T17:08:43;19.3;71.7
67893;DHT22;54688;52.376;16.744;2023-08-01T17:11:47;19.3;71.6
67893;DHT22;54688;52.376;16.744;2023-08-01T17:14:49;19.2;72
67893;DHT22;54688;52.376;16.744;2023-08-01T17:17:52;19.1;72.2
67893;DHT22;54688;52.376;16.744;2023-08-01T17:20:55;19.1;73.1
67893;DHT22;54688;52.376;16.744;2023-08-01T17:23:57;19;72.3
67893;DHT22;54688;52.376;16.744;2023-08-01T17:27:00;19;72.8
67893;DHT22;54688;52.376;16.744;2023-08-01T17:30:03;19;73.6
67893;DHT22;54688;52.376;16.744;2023-08-01T17:33:06;18.9;73.2
67893;DHT22;54688;52.376;16.744;2023-08-01T17:36:07;18.9;73.7
67893;DHT22;54688;52.376;16.744;2023-08-01T17:39:09;18.8;73.9
67893;DHT22;54688;52.376;16.744;2023-08-01T17:42:11;18.8;74.6
67893;DHT22;54688;52.376;16.744;2023-08-01T17:45:14;18.9;75.1
67893;DHT22;54688;52.376;16.744;2023-08-01T17:48:16;19;74.7
67893;DHT22;54688;52.376;16.744;2023-08-01T17:51:19;19.2;73.6
67893;DHT22;54688;52.376;16.744;2023-08-01T17:54:22;19.4;72.7
67893;DHT22;54688;52.376;16.744;2023-08-01T17:57:24;19.5;73
67893;DHT22;54688;52.376;16.744;2023-08-01T18:00:27;19.6;72.7
67893;DHT22;54688;52.376;16.744;2023-08-01T18:03:29;19.8;70.9
67893;DHT22;54688;52.376;16.744;2023-08-01T18:06:32;19.9;70.9
67893;DHT22;54688;52.376;16.744;2023-08-01T18:09:34;19.9;70.2
67893;DHT22;54688;52.376;16.744;2023-08-01T18:12:36;19.8;70.4
67893;DHT22;54688;52.376;16.744;2023-08-01T18:15:39;19.7;71.1
67893;DHT22;54688;52.376;16.744;2023-08-01T18:18:41;19.6;71
67893;DHT22;54688;52.376;16.744;2023-08-01T18:21:44;19.4;71.8
67893;DHT22;54688;52.376;16.744;2023-08-01T18:24:46;19.3;72.6
67893;DHT22;54688;52.376;16.744;2023-08-01T18:27:48;19.1;72.7
67893;DHT22;54688;52.376;16.744;2023-08-01T18:30:50;19;74.7
67893;DHT22;54688;52.376;16.744;2023-08-01T18:33:53;18.9;74.4
67893;DHT22;54688;52.376;16.744;2023-08-01T18:36:55;18.7;74.6
67893;DHT22;54688;52.376;16.744;2023-08-01T18:39:57;18.6;74.7
67893;DHT22;54688;52.376;16.744;2023-08-01T18:42:59;18.5;75.2
67893;DHT22;54688;52.376;16.744;2023-08-01T18:46:02;18.4;75
67893;DHT22;54688;52.376;16.744;2023-08-01T18:49:05;18.2;75.7
67893;DHT22;54688;52.376;16.744;2023-08-01T18:52:07;18.2;76.1
67893;DHT22;54688;52.376;16.744;2023-08-01T18:55:10;18;76.8
67893;DHT22;54688;52.376;16.744;2023-08-01T18:58:12;17.9;77.9
67893;DHT22;54688;52.376;16.744;2023-08-01T19:01:15;17.8;77.6
67893;DHT22;54688;52.376;16.744;2023-08-01T19:04:19;17.7;78.1
67893;DHT22;54688;52.376;16.744;2023-08-01T19:07:21;17.7;78.2
67893;DHT22;54688;52.376;16.744;2023-08-01T19:10:23;17.6;78.9
67893;DHT22;54688;52.376;16.744;2023-08-01T19:13:25;17.5;79.1
67893;DHT22;54688;52.376;16.744;2023-08-01T19:16:28;17.3;79.7
67893;DHT22;54688;52.376;16.744;2023-08-01T19:19:31;17.2;79.7
67893;DHT22;54688;52.376;16.744;2023-08-01T19:22:33;17.2;80
67893;DHT22;54688;52.376;16.744;2023-08-01T19:25:35;17.1;80.2
67893;DHT22;54688;52.376;16.744;2023-08-01T19:34:36;17;80.9
67893;DHT22;54688;52.376;16.744;2023-08-01T19:37:38;17;80.1
67893;DHT22;54688;52.376;16.744;2023-08-01T19:40:41;16.9;80.2
67893;DHT22;54688;52.376;16.744;2023-08-01T19:43:44;16.9;80.1
67893;DHT22;54688;52.376;16.744;2023-08-01T19:46:47;16.9;80
67893;DHT22;54688;52.376;16.744;2023-08-01T19:49:49;16.8;79.8
67893;DHT22;54688;52.376;16.744;2023-08-01T19:52:52;16.8;79.9
67893;DHT22;54688;52.376;16.744;2023-08-01T19:55:54;16.7;79.5
67893;DHT22;54688;52.376;16.744;2023-08-01T19:58:57;16.7;79.7
67893;DHT22;54688;52.376;16.744;2023-08-01T20:01:59;16.6;79.1
67893;DHT22;54688;52.376;16.744;2023-08-01T20:05:02;16.6;78.9
67893;DHT22;54688;52.376;16.744;2023-08-01T20:08:05;16.5;78.2
67893;DHT22;54688;52.376;16.744;2023-08-01T20:11:08;16.5;78.5
67893;DHT22;54688;52.376;16.744;2023-08-01T20:14:10;16.4;78.7
67893;DHT22;54688;52.376;16.744;2023-08-01T20:17:12;16.4;78.6
67893;DHT22;54688;52.376;16.744;2023-08-01T20:20:14;16.3;79
67893;DHT22;54688;52.376;16.744;2023-08-01T20:23:17;16.2;78.6
67893;DHT22;54688;52.376;16.744;2023-08-01T20:26:20;16.1;77.6
67893;DHT22;54688;52.376;16.744;2023-08-01T20:29:22;16;75.5
67893;DHT22;54688;52.376;16.744;2023-08-01T20:32:25;15.9;74.7
67893;DHT22;54688;52.376;16.744;2023-08-01T20:35:27;15.9;74
67893;DHT22;54688;52.376;16.744;2023-08-01T20:38:30;15.8;74.8
67893;DHT22;54688;52.376;16.744;2023-08-01T20:41:32;15.7;74.7
67893;DHT22;54688;52.376;16.744;2023-08-01T20:44:34;15.7;76.3
67893;DHT22;54688;52.376;16.744;2023-08-01T20:47:37;15.6;75.9
67893;DHT22;54688;52.376;16.744;2023-08-01T20:50:39;15.5;75.1
67893;DHT22;54688;52.376;16.744;2023-08-01T20:53:42;15.5;75.9
67893;DHT22;54688;52.376;16.744;2023-08-01T20:56:44;15.4;76
67893;DHT22;54688;52.376;16.744;2023-08-01T20:59:46;15.3;76.3
67893;DHT22;54688;52.376;16.744;2023-08-01T21:02:48;15.2;76.4
67893;DHT22;54688;52.376;16.744;2023-08-01T21:05:51;15.2;77.1
67893;DHT22;54688;52.376;16.744;2023-08-01T21:08:53;15.1;77.8
67893;DHT22;54688;52.376;16.744;2023-08-01T21:11:56;15.1;78
67893;DHT22;54688;52.376;16.744;2023-08-01T21:14:58;15;78.2
67893;DHT22;54688;52.376;16.744;2023-08-01T21:18:00;15;78.5
67893;DHT22;54688;52.376;16.744;2023-08-01T21:21:02;15;79.5
67893;DHT22;54688;52.376;16.744;2023-08-01T21:24:04;14.9;79.8
67893;DHT22;54688;52.376;16.744;2023-08-01T21:27:07;14.9;80.6
67893;DHT22;54688;52.376;16.744;2023-08-01T21:30:10;14.8;79.7
67893;DHT22;54688;52.376;16.744;2023-08-01T21:33:13;14.8;79.7
67893;DHT22;54688;52.376;16.744;2023-08-01T21:36:14;14.7;79.3
67893;DHT22;54688;52.376;16.744;2023-08-01T21:39:16;14.7;79.2
67893;DHT22;54688;52.376;16.744;2023-08-01T21:42:19;14.7;79.5
67893;DHT22;54688;52.376;16.744;2023-08-01T21:45:21;14.6;79.5
67893;DHT22;54688;52.376;16.744;2023-08-01T21:48:24;14.6;79.9
67893;DHT22;54688;52.376;16.744;2023-08-01T21:51:26;14.5;79.8
67893;DHT22;54688;52.376;16.744;2023-08-01T21:54:28;14.5;80.2
67893;DHT22;54688;52.376;16.744;2023-08-01T21:57:29;14.5;79.7
67893;DHT22;54688;52.376;16.744;2023-08-01T22:00:31;14.4;80.4
67893;DHT22;54688;52.376;16.744;2023-08-01T22:06:32;14.3;80.3
67893;DHT22;54688;52.376;16.744;2023-08-01T22:09:34;14.3;80.2
67893;DHT22;54688;52.376;16.744;2023-08-01T22:12:37;14.2;80.1
67893;DHT22;54688;52.376;16.744;2023-08-01T22:15:39;14.2;80.4
67893;DHT22;54688;52.376;16.744;2023-08-01T22:18:42;14.2;80.6
67893;DHT22;54688;52.376;16.744;2023-08-01T22:21:45;14.1;80.8
67893;DHT22;54688;52.376;16.744;2023-08-01T22:24:47;14.1;80.6
67893;DHT22;54688;52.376;16.744;2023-08-01T22:27:51;14;81.3
67893;DHT22;54688;52.376;16.744;2023-08-01T22:30:53;14;82.1
67893;DHT22;54688;52.376;16.744;2023-08-01T22:33:55;13.9;82
67893;DHT22;54688;52.376;16.744;2023-08-01T22:36:57;14;82.4
67893;DHT22;54688;52.376;16.744;2023-08-01T22:39:59;13.9;82.6
67893;DHT22;54688;52.376;16.744;2023-08-01T22:43:02;13.9;83
67893;DHT22;54688;52.376;16.744;2023-08-01T22:46:04;13.9;83.1
67893;DHT22;54688;52.376;16.744;2023-08-01T22:49:06;13.9;83.6